createdAt,value
2019-03-30T00:01:58.868Z,99.90
2019-03-30T00:04:27.347Z,99.90
2019-03-30T00:06:55.852Z,99.90
2019-03-30T00:09:24.356Z,99.90
2019-03-30T00:11:52.939Z,99.90
2019-03-30T00:14:21.484Z,99.90
2019-03-30T00:16:49.979Z,99.90
2019-03-30T00:19:18.499Z,99.90
2019-03-30T00:21:47.183Z,99.90
2019-03-30T00:24:15.824Z,99.90
2019-03-30T00:26:44.296Z,99.90
2019-03-30T00:29:12.771Z,99.90
2019-03-30T00:31:41.371Z,99.90
2019-03-30T00:34:09.838Z,99.90
2019-03-30T00:36:38.407Z,99.90
2019-03-30T00:39:07.765Z,99.90
2019-03-30T00:41:36.324Z,99.90
2019-03-30T00:44:07.099Z,99.90
2019-03-30T00:46:35.583Z,99.90
2019-03-30T00:49:04.132Z,99.90
2019-03-30T00:51:32.601Z,99.90
2019-03-30T00:54:01.169Z,99.90
2019-03-30T00:56:29.697Z,99.90
2019-03-30T00:58:58.241Z,99.90
2019-03-30T01:01:26.735Z,99.90
2019-03-30T01:03:55.204Z,99.90
2019-03-30T01:06:23.788Z,99.90
2019-03-30T01:08:52.286Z,99.90
2019-03-30T01:11:20.867Z,99.90
2019-03-30T01:13:49.431Z,99.90
2019-03-30T01:16:17.988Z,99.90
2019-03-30T01:18:46.442Z,99.90
2019-03-30T01:21:14.923Z,99.90
2019-03-30T01:23:43.533Z,99.90
2019-03-30T01:26:12.234Z,99.90
2019-03-30T01:28:40.801Z,99.90
2019-03-30T01:31:09.287Z,99.90
2019-03-30T01:33:37.762Z,99.90
2019-03-30T01:36:06.211Z,99.90
2019-03-30T01:38:34.701Z,99.90
2019-03-30T01:41:03.180Z,99.90
2019-03-30T01:43:31.634Z,99.90
2019-03-30T01:46:00.183Z,99.90
2019-03-30T01:48:28.736Z,99.90
2019-03-30T01:50:57.312Z,99.90
2019-03-30T01:53:25.790Z,99.90
2019-03-30T01:55:54.283Z,99.90
2019-03-30T01:58:22.775Z,99.90
2019-03-30T02:00:51.405Z,99.90
2019-03-30T02:03:19.934Z,99.90
2019-03-30T02:05:48.436Z,99.90
2019-03-30T02:08:17.027Z,99.90
2019-03-30T02:10:46.435Z,99.90
2019-03-30T02:13:14.893Z,99.90
2019-03-30T02:15:43.469Z,99.90
2019-03-30T02:18:11.997Z,99.90
2019-03-30T02:20:45.478Z,99.90
2019-03-30T02:23:14.568Z,99.90
2019-03-30T02:25:43.344Z,99.90
2019-03-30T02:28:12.075Z,99.90
2019-03-30T02:30:40.701Z,99.90
2019-03-30T02:33:09.236Z,99.90
2019-03-30T02:35:37.726Z,99.90
2019-03-30T02:38:06.278Z,99.90
2019-03-30T02:40:34.742Z,99.90
2019-03-30T02:43:03.254Z,99.90
2019-03-30T02:45:31.890Z,99.90
2019-03-30T02:48:00.348Z,99.90
2019-03-30T02:50:28.846Z,99.90
2019-03-30T02:52:57.296Z,99.90
2019-03-30T02:55:25.856Z,99.90
2019-03-30T02:57:54.351Z,99.90
2019-03-30T03:00:22.957Z,99.90
2019-03-30T03:02:51.408Z,99.90
2019-03-30T03:05:19.965Z,99.90
2019-03-30T03:07:48.502Z,99.90
2019-03-30T03:10:17.333Z,99.90
2019-03-30T03:12:45.896Z,99.90
2019-03-30T03:15:14.592Z,99.90
2019-03-30T03:17:43.071Z,99.90
2019-03-30T03:20:11.595Z,99.90
2019-03-30T03:22:40.070Z,99.90
2019-03-30T03:25:08.790Z,99.90
2019-03-30T03:27:37.241Z,99.90
2019-03-30T03:30:06.824Z,99.90
2019-03-30T03:32:35.401Z,99.90
2019-03-30T03:35:04.111Z,99.90
2019-03-30T03:37:44.560Z,99.90
2019-03-30T03:40:02.953Z,99.90
2019-03-30T03:42:31.409Z,99.90
2019-03-30T03:44:59.960Z,99.90
2019-03-30T03:47:28.423Z,99.90
2019-03-30T03:49:57.026Z,99.90
2019-03-30T03:52:25.524Z,99.90
2019-03-30T03:54:55.714Z,99.90
2019-03-30T03:57:27.295Z,99.90
2019-03-30T03:59:58.008Z,99.90
2019-03-30T04:02:28.090Z,99.90
2019-03-30T04:04:59.403Z,99.90
2019-03-30T04:07:31.006Z,99.90
2019-03-30T04:10:01.116Z,99.90
2019-03-30T04:12:31.495Z,99.90
2019-03-30T04:15:02.684Z,99.90
2019-03-30T04:17:31.573Z,99.90
2019-03-30T04:20:00.060Z,99.90
2019-03-30T04:22:28.517Z,99.90
2019-03-30T04:24:56.988Z,99.90
2019-03-30T04:27:25.440Z,99.90
2019-03-30T04:29:53.925Z,99.90
2019-03-30T04:32:22.498Z,99.90
2019-03-30T04:34:51.052Z,99.90
2019-03-30T04:37:19.503Z,99.90
2019-03-30T04:39:47.983Z,99.90
2019-03-30T04:42:16.444Z,99.90
2019-03-30T04:44:45.029Z,99.90
2019-03-30T04:47:13.482Z,99.90
2019-03-30T04:49:41.928Z,99.90
2019-03-30T04:52:10.428Z,99.90
2019-03-30T04:54:38.877Z,99.90
2019-03-30T04:57:07.367Z,99.90
2019-03-30T04:59:35.852Z,99.90
2019-03-30T05:02:04.420Z,99.90
2019-03-30T05:04:32.876Z,99.90
2019-03-30T05:07:01.329Z,99.90
2019-03-30T05:09:29.794Z,99.90
2019-03-30T05:12:00.195Z,99.90
2019-03-30T05:14:28.723Z,99.90
2019-03-30T05:16:57.278Z,99.90
2019-03-30T05:19:25.849Z,99.90
2019-03-30T05:21:55.114Z,99.90
2019-03-30T05:24:23.564Z,99.90
2019-03-30T05:26:52.321Z,99.90
2019-03-30T05:29:21.002Z,99.90
2019-03-30T05:31:49.624Z,99.90
2019-03-30T05:34:18.092Z,99.90
2019-03-30T05:36:46.659Z,99.90
2019-03-30T05:39:15.118Z,99.90
2019-03-30T05:41:43.592Z,99.90
2019-03-30T05:44:12.081Z,99.90
2019-03-30T05:46:40.903Z,99.90
2019-03-30T05:49:09.433Z,99.90
2019-03-30T05:51:37.992Z,99.90
2019-03-30T05:54:06.456Z,99.90
2019-03-30T05:56:35.026Z,99.90
2019-03-30T05:59:03.553Z,99.90
2019-03-30T06:01:32.039Z,99.90
2019-03-30T06:04:00.495Z,99.90
2019-03-30T06:06:29.010Z,99.90
2019-03-30T06:08:57.498Z,99.90
2019-03-30T06:11:25.984Z,99.90
2019-03-30T06:13:54.554Z,99.90
2019-03-30T06:16:23.060Z,99.90
2019-03-30T06:18:51.612Z,99.90
2019-03-30T06:21:20.062Z,99.90
2019-03-30T06:23:48.849Z,99.90
2019-03-30T06:26:17.612Z,99.90
2019-03-30T06:28:46.064Z,99.90
2019-03-30T06:31:14.528Z,99.90
2019-03-30T06:33:43.006Z,99.90
2019-03-30T06:36:11.520Z,99.90
2019-03-30T06:38:39.987Z,99.90
2019-03-30T06:41:08.471Z,99.90
2019-03-30T06:43:37.011Z,99.90
2019-03-30T06:46:05.575Z,99.90
2019-03-30T06:48:36.133Z,99.90
2019-03-30T06:51:04.260Z,99.90
2019-03-30T06:53:32.748Z,99.90
2019-03-30T06:56:01.327Z,99.90
2019-03-30T06:58:30.804Z,99.90
2019-03-30T07:00:59.466Z,99.90
2019-03-30T07:03:28.077Z,99.90
2019-03-30T07:05:58.027Z,99.90
2019-03-30T07:08:28.409Z,99.90
2019-03-30T07:10:58.547Z,99.90
2019-03-30T07:13:28.406Z,99.90
2019-03-30T07:15:59.363Z,99.90
2019-03-30T07:18:27.935Z,99.90
2019-03-30T07:20:56.515Z,99.90
2019-03-30T07:23:26.611Z,99.90
2019-03-30T07:25:55.071Z,99.90
2019-03-30T07:28:23.521Z,99.90
2019-03-30T07:30:52.047Z,99.90
2019-03-30T07:33:20.580Z,99.90
2019-03-30T07:35:49.112Z,99.90
2019-03-30T07:38:17.670Z,99.90
2019-03-30T07:40:46.203Z,99.90
2019-03-30T07:43:14.761Z,99.90
2019-03-30T07:45:43.214Z,99.90
2019-03-30T07:48:11.693Z,99.90
2019-03-30T07:50:40.180Z,99.90
2019-03-30T07:53:08.728Z,99.90
2019-03-30T07:55:37.274Z,99.90
2019-03-30T07:58:05.755Z,99.90
2019-03-30T08:00:34.337Z,99.90
2019-03-30T08:03:02.856Z,99.90
2019-03-30T08:05:31.516Z,99.90
2019-03-30T08:07:59.980Z,99.90
2019-03-30T08:10:28.578Z,99.90
2019-03-30T08:12:57.403Z,99.90
2019-03-30T08:15:25.864Z,99.90
2019-03-30T08:17:54.404Z,99.90
2019-03-30T08:20:22.891Z,99.90
2019-03-30T08:22:51.358Z,99.90
2019-03-30T08:25:19.888Z,99.90
2019-03-30T08:27:48.348Z,99.90
2019-03-30T08:30:16.966Z,99.90
2019-03-30T08:32:45.464Z,99.90
2019-03-30T08:35:13.973Z,99.90
2019-03-30T08:37:42.500Z,95.00
2019-03-30T08:40:11.218Z,96.00
2019-03-30T08:42:39.684Z,97.10
2019-03-30T08:45:08.474Z,96.40
2019-03-30T08:47:36.952Z,94.20
2019-03-30T08:50:07.742Z,94.40
2019-03-30T08:52:36.263Z,96.10
2019-03-30T08:55:06.667Z,96.70
2019-03-30T08:57:35.118Z,97.30
2019-03-30T09:00:04.353Z,95.80
2019-03-30T09:02:32.834Z,96.30
2019-03-30T09:05:01.311Z,94.70
2019-03-30T09:07:29.792Z,92.40
2019-03-30T09:09:58.247Z,92.90
2019-03-30T09:12:26.730Z,91.10
2019-03-30T09:14:55.255Z,91.50
2019-03-30T09:17:23.748Z,90.80
2019-03-30T09:19:52.222Z,90.00
2019-03-30T09:22:20.776Z,90.30
2019-03-30T09:24:49.272Z,88.70
2019-03-30T09:27:17.764Z,85.60
2019-03-30T09:29:46.225Z,86.70
2019-03-30T09:32:15.181Z,85.50
2019-03-30T09:34:43.760Z,85.70
2019-03-30T09:37:12.267Z,83.10
2019-03-30T09:39:40.755Z,81.80
2019-03-30T09:42:09.216Z,81.40
2019-03-30T09:44:37.717Z,77.10
2019-03-30T09:47:06.227Z,75.50
2019-03-30T09:49:34.720Z,77.40
2019-03-30T09:52:03.191Z,74.90
2019-03-30T09:54:31.658Z,75.90
2019-03-30T09:57:00.162Z,76.30
2019-03-30T09:59:28.608Z,75.70
2019-03-30T10:01:57.104Z,74.90
2019-03-30T10:04:25.587Z,77.70
2019-03-30T10:06:54.049Z,75.40
2019-03-30T10:09:22.531Z,78.90
2019-03-30T10:11:51.038Z,76.80
2019-03-30T10:14:19.750Z,74.70
2019-03-30T10:16:48.812Z,75.60
2019-03-30T10:19:17.390Z,71.00
2019-03-30T10:21:45.867Z,70.70
2019-03-30T10:24:14.336Z,73.20
2019-03-30T10:26:42.829Z,73.90
2019-03-30T10:29:11.277Z,73.80
2019-03-30T10:31:39.782Z,72.70
2019-03-30T10:34:08.232Z,73.90
2019-03-30T10:36:36.791Z,75.80
2019-03-30T10:39:07.300Z,73.20
2019-03-30T10:41:35.774Z,72.80
2019-03-30T10:44:04.301Z,73.70
2019-03-30T10:46:32.794Z,74.20
2019-03-30T10:49:01.321Z,74.00
2019-03-30T10:51:29.809Z,76.00
2019-03-30T10:53:58.277Z,77.70
2019-03-30T10:56:26.804Z,76.00
2019-03-30T10:58:55.395Z,76.10
2019-03-30T11:01:23.876Z,77.40
2019-03-30T11:03:52.363Z,73.20
2019-03-30T11:06:20.858Z,75.30
2019-03-30T11:08:49.320Z,76.90
2019-03-30T11:11:17.880Z,74.30
2019-03-30T11:13:46.338Z,74.50
2019-03-30T11:16:14.796Z,74.00
2019-03-30T11:18:43.282Z,73.30
2019-03-30T11:21:11.762Z,73.10
2019-03-30T11:23:40.245Z,73.30
2019-03-30T11:26:08.789Z,71.80
2019-03-30T11:28:37.237Z,72.30
2019-03-30T11:31:05.758Z,71.70
2019-03-30T11:33:36.665Z,69.20
2019-03-30T11:36:05.208Z,70.40
2019-03-30T11:38:33.660Z,70.20
2019-03-30T11:41:02.150Z,67.10
2019-03-30T11:43:30.598Z,65.80
2019-03-30T11:45:59.071Z,67.10
2019-03-30T11:48:27.523Z,64.70
2019-03-30T11:50:56.036Z,66.10
2019-03-30T11:53:24.519Z,64.60
2019-03-30T11:55:52.981Z,60.80
2019-03-30T11:58:21.550Z,63.80
2019-03-30T12:00:49.995Z,62.60
2019-03-30T12:03:18.560Z,62.50
2019-03-30T12:05:47.022Z,59.40
2019-03-30T12:08:15.500Z,60.70
2019-03-30T12:10:43.967Z,60.60
2019-03-30T12:13:12.528Z,62.00
2019-03-30T12:15:41.052Z,62.30
2019-03-30T12:18:09.571Z,60.60
2019-03-30T12:20:38.108Z,57.50
2019-03-30T12:23:06.558Z,57.70
2019-03-30T12:25:36.271Z,59.40
2019-03-30T12:28:05.016Z,58.10
2019-03-30T12:30:33.636Z,55.60
2019-03-30T12:33:02.100Z,57.50
2019-03-30T12:35:30.666Z,57.30
2019-03-30T12:37:59.114Z,54.80
2019-03-30T12:40:27.587Z,56.40
2019-03-30T12:42:56.143Z,54.10
2019-03-30T12:45:24.603Z,52.30
2019-03-30T12:47:53.952Z,55.00
2019-03-30T12:50:22.438Z,53.40
2019-03-30T12:52:50.896Z,51.30
2019-03-30T12:55:19.449Z,51.30
2019-03-30T12:57:47.944Z,52.10
2019-03-30T13:00:16.472Z,48.50
2019-03-30T13:02:44.947Z,48.70
2019-03-30T13:05:13.541Z,49.70
2019-03-30T13:07:42.012Z,49.30
2019-03-30T13:10:11.144Z,50.30
2019-03-30T13:12:39.599Z,49.50
2019-03-30T13:15:08.302Z,52.80
2019-03-30T13:17:36.862Z,51.10
2019-03-30T13:20:06.764Z,50.70
2019-03-30T13:22:35.324Z,50.80
2019-03-30T13:25:04.731Z,48.90
2019-03-30T13:27:33.192Z,47.30
2019-03-30T13:30:01.667Z,47.40
2019-03-30T13:32:30.129Z,46.40
2019-03-30T13:34:58.614Z,46.50
2019-03-30T13:37:27.124Z,48.40
2019-03-30T13:39:55.608Z,47.50
2019-03-30T13:42:24.119Z,48.90
2019-03-30T13:44:52.743Z,48.20
2019-03-30T13:47:21.211Z,47.90
2019-03-30T13:49:49.710Z,49.00
2019-03-30T13:52:18.181Z,50.00
2019-03-30T13:54:46.675Z,50.20
2019-03-30T13:57:15.182Z,49.70
2019-03-30T13:59:43.779Z,50.30
2019-03-30T14:02:12.262Z,52.20
2019-03-30T14:04:40.832Z,50.70
2019-03-30T14:07:09.364Z,50.90
2019-03-30T14:09:37.836Z,50.10
2019-03-30T14:12:06.290Z,50.90
2019-03-30T14:14:34.852Z,50.80
2019-03-30T14:17:03.338Z,49.00
2019-03-30T14:19:31.783Z,48.70
2019-03-30T14:22:00.252Z,47.20
2019-03-30T14:24:28.735Z,49.00
2019-03-30T14:26:57.233Z,49.80
2019-03-30T14:29:25.736Z,50.50
2019-03-30T14:31:54.180Z,50.70
2019-03-30T14:34:22.671Z,52.70
2019-03-30T14:36:51.124Z,51.50
2019-03-30T14:39:19.624Z,50.20
2019-03-30T14:41:48.083Z,50.40
2019-03-30T14:44:16.593Z,48.90
2019-03-30T14:46:45.090Z,49.40
2019-03-30T14:49:13.662Z,48.80
2019-03-30T14:51:42.144Z,50.10
2019-03-30T14:54:10.591Z,50.80
2019-03-30T14:56:45.392Z,50.80
2019-03-30T14:59:10.604Z,51.40
2019-03-30T15:01:39.329Z,50.40
2019-03-30T15:04:08.003Z,49.60
2019-03-30T15:06:36.524Z,48.80
2019-03-30T15:09:06.861Z,50.60
2019-03-30T15:11:37.897Z,48.40
2019-03-30T15:14:05.828Z,50.40
2019-03-30T15:16:34.407Z,51.00
2019-03-30T15:19:02.916Z,49.80
2019-03-30T15:21:31.436Z,50.30
2019-03-30T15:23:59.937Z,51.60
2019-03-30T15:26:28.396Z,52.10
2019-03-30T15:28:56.862Z,50.50
2019-03-30T15:31:25.423Z,49.90
2019-03-30T15:33:53.884Z,51.10
2019-03-30T15:36:22.400Z,50.40
2019-03-30T15:38:50.886Z,51.20
2019-03-30T15:41:19.359Z,52.10
2019-03-30T15:43:47.824Z,51.10
2019-03-30T15:46:16.316Z,52.30
2019-03-30T15:48:44.768Z,53.50
2019-03-30T15:51:13.396Z,53.40
2019-03-30T15:53:41.845Z,53.10
2019-03-30T15:56:10.403Z,53.20
2019-03-30T15:58:38.883Z,54.10
2019-03-30T16:01:07.411Z,53.60
2019-03-30T16:03:35.917Z,54.30
2019-03-30T16:06:05.566Z,53.90
2019-03-30T16:08:34.126Z,56.70
2019-03-30T16:11:02.574Z,56.80
2019-03-30T16:13:31.096Z,57.10
2019-03-30T16:15:59.568Z,56.70
2019-03-30T16:18:28.003Z,59.20
2019-03-30T16:20:56.491Z,59.90
2019-03-30T16:23:25.057Z,58.50
2019-03-30T16:25:53.544Z,60.80
2019-03-30T16:28:22.072Z,59.50
2019-03-30T16:30:50.544Z,59.10
2019-03-30T16:33:19.168Z,60.30
2019-03-30T16:35:47.612Z,61.00
2019-03-30T16:38:16.067Z,60.80
2019-03-30T16:40:44.575Z,60.10
2019-03-30T16:43:13.030Z,62.70
2019-03-30T16:45:41.606Z,60.30
2019-03-30T16:48:10.066Z,60.80
2019-03-30T16:50:38.539Z,62.20
2019-03-30T16:53:07.023Z,63.40
2019-03-30T16:55:35.498Z,61.60
2019-03-30T16:58:04.071Z,62.50
2019-03-30T17:00:34.078Z,62.40
2019-03-30T17:03:03.512Z,62.60
2019-03-30T17:05:32.126Z,63.40
2019-03-30T17:08:00.613Z,62.90
2019-03-30T17:10:29.106Z,63.10
2019-03-30T17:12:57.589Z,62.50
2019-03-30T17:15:26.070Z,67.80
2019-03-30T17:17:54.524Z,68.20
2019-03-30T17:20:23.039Z,67.70
2019-03-30T17:22:51.581Z,68.90
2019-03-30T17:25:20.036Z,69.20
2019-03-30T17:27:58.327Z,72.10
2019-03-30T17:30:18.698Z,73.70
2019-03-30T17:32:47.191Z,75.40
2019-03-30T17:35:15.657Z,76.00
2019-03-30T17:37:44.123Z,79.10
2019-03-30T17:40:12.684Z,80.20
2019-03-30T17:42:41.140Z,79.20
2019-03-30T17:45:10.968Z,81.00
2019-03-30T17:47:39.494Z,83.10
2019-03-30T17:50:09.010Z,84.50
2019-03-30T17:52:37.471Z,85.90
2019-03-30T17:55:06.548Z,89.10
2019-03-30T17:57:35.052Z,89.80
2019-03-30T18:00:07.961Z,91.40
2019-03-30T18:02:35.584Z,91.70
2019-03-30T18:05:04.708Z,92.30
2019-03-30T18:07:33.155Z,92.40
2019-03-30T18:10:03.442Z,95.00
2019-03-30T18:12:31.862Z,95.10
2019-03-30T18:15:00.422Z,94.90
2019-03-30T18:17:28.921Z,97.40
2019-03-30T18:19:57.430Z,99.90
2019-03-30T18:22:26.007Z,99.90
2019-03-30T18:24:54.535Z,99.90
2019-03-30T18:27:22.975Z,99.90
2019-03-30T18:29:51.452Z,99.90
2019-03-30T18:32:20.559Z,99.90
2019-03-30T18:34:50.294Z,99.90
2019-03-30T18:37:18.960Z,99.90
2019-03-30T18:39:47.486Z,99.90
2019-03-30T18:42:15.970Z,99.90
2019-03-30T18:44:44.457Z,99.90
2019-03-30T18:47:12.900Z,99.90
2019-03-30T18:49:42.670Z,99.90
2019-03-30T18:52:11.367Z,99.90
2019-03-30T18:54:41.917Z,99.90
2019-03-30T18:57:10.360Z,99.90
2019-03-30T18:59:38.855Z,99.90
2019-03-30T19:02:07.311Z,99.90
2019-03-30T19:04:35.786Z,99.90
2019-03-30T19:07:04.300Z,99.90
2019-03-30T19:09:32.769Z,99.90
2019-03-30T19:12:01.263Z,99.90
2019-03-30T19:14:29.748Z,99.90
2019-03-30T19:16:58.217Z,99.90
2019-03-30T19:19:26.845Z,99.90
2019-03-30T19:21:55.326Z,99.90
2019-03-30T19:24:23.984Z,99.90
2019-03-30T19:26:52.456Z,99.90
2019-03-30T19:29:20.995Z,99.90
2019-03-30T19:31:49.495Z,99.90
2019-03-30T19:34:17.996Z,99.90
2019-03-30T19:36:46.453Z,99.90
2019-03-30T19:39:15.139Z,99.90
2019-03-30T19:41:43.608Z,99.90
2019-03-30T19:44:12.243Z,99.90
2019-03-30T19:46:40.758Z,99.90
2019-03-30T19:49:09.212Z,99.90
2019-03-30T19:51:37.679Z,99.90
2019-03-30T19:54:06.230Z,99.90
2019-03-30T19:56:34.689Z,99.90
2019-03-30T19:59:10.526Z,99.90
2019-03-30T20:01:33.340Z,99.90
2019-03-30T20:04:01.842Z,99.90
2019-03-30T20:06:30.307Z,99.90
2019-03-30T20:08:58.835Z,99.90
2019-03-30T20:11:27.348Z,99.90
2019-03-30T20:13:55.846Z,99.90
2019-03-30T20:16:24.383Z,99.90
2019-03-30T20:19:10.652Z,99.90
2019-03-30T20:21:23.187Z,99.90
2019-03-30T20:23:51.680Z,99.90
2019-03-30T20:26:20.172Z,99.90
2019-03-30T20:28:48.688Z,99.90
2019-03-30T20:31:17.210Z,99.90
2019-03-30T20:33:45.715Z,99.90
2019-03-30T20:36:14.219Z,99.90
2019-03-30T20:38:42.686Z,99.90
2019-03-30T20:41:11.289Z,99.90
2019-03-30T20:43:39.790Z,99.90
2019-03-30T20:46:08.243Z,99.90
2019-03-30T20:48:36.788Z,99.90
2019-03-30T20:51:05.281Z,99.90
2019-03-30T20:53:35.369Z,99.90
2019-03-30T20:56:03.946Z,99.90
2019-03-30T20:58:32.408Z,99.90
2019-03-30T21:01:00.975Z,99.90
2019-03-30T21:03:29.475Z,99.90
2019-03-30T21:05:57.958Z,99.90
2019-03-30T21:08:26.555Z,99.90
2019-03-30T21:10:55.074Z,99.90
2019-03-30T21:13:23.557Z,99.90
2019-03-30T21:15:52.067Z,99.90
2019-03-30T21:18:20.553Z,99.90
2019-03-30T21:20:49.147Z,99.90
2019-03-30T21:23:17.623Z,99.90
2019-03-30T21:25:46.114Z,99.90
2019-03-30T21:28:14.570Z,99.90
2019-03-30T21:30:43.066Z,99.90
2019-03-30T21:33:11.551Z,99.90
2019-03-30T21:35:40.020Z,99.90
2019-03-30T21:38:08.513Z,99.90
2019-03-30T21:40:37.008Z,99.90
2019-03-30T21:43:05.540Z,99.90
2019-03-30T21:45:34.052Z,99.90
2019-03-30T21:48:02.551Z,99.90
2019-03-30T21:50:31.071Z,99.90
2019-03-30T21:52:59.556Z,99.90
2019-03-30T21:55:28.016Z,99.90
2019-03-30T21:57:56.582Z,99.90
2019-03-30T22:00:33.073Z,99.90
2019-03-30T22:03:01.572Z,99.90
2019-03-30T22:05:30.202Z,99.90
2019-03-30T22:07:59.029Z,99.90
2019-03-30T22:10:28.373Z,99.90
2019-03-30T22:12:57.092Z,99.90
2019-03-30T22:15:29.648Z,99.90
2019-03-30T22:17:58.279Z,99.90
2019-03-30T22:20:26.806Z,99.90
2019-03-30T22:22:55.305Z,99.90
2019-03-30T22:25:23.751Z,99.90
2019-03-30T22:27:52.193Z,99.90
2019-03-30T22:30:25.111Z,99.90
2019-03-30T22:32:50.917Z,99.90
2019-03-30T22:35:19.399Z,99.90
2019-03-30T22:37:47.906Z,99.90
2019-03-30T22:40:16.489Z,99.90
2019-03-30T22:42:44.982Z,99.90
2019-03-30T22:45:13.539Z,99.90
2019-03-30T22:47:42.031Z,99.90
2019-03-30T22:50:10.658Z,99.90
2019-03-30T22:52:39.133Z,99.90
2019-03-30T22:55:08.550Z,99.90
2019-03-30T22:57:36.995Z,99.90
2019-03-30T23:00:09.609Z,99.90
2019-03-30T23:02:38.088Z,99.90
2019-03-30T23:05:06.872Z,99.90
2019-03-30T23:07:35.834Z,99.90
2019-03-30T23:10:06.419Z,99.90
2019-03-30T23:12:34.942Z,99.90
2019-03-30T23:15:03.518Z,99.90
2019-03-30T23:17:32.058Z,99.90
2019-03-30T23:20:00.500Z,99.90
2019-03-30T23:22:28.986Z,99.90
2019-03-30T23:24:57.438Z,99.90
2019-03-30T23:27:25.927Z,99.90
2019-03-30T23:29:54.452Z,99.90
2019-03-30T23:32:22.918Z,99.90
2019-03-30T23:34:51.368Z,99.90
2019-03-30T23:37:19.838Z,99.90
2019-03-30T23:39:48.327Z,99.90
2019-03-30T23:42:16.828Z,99.90
2019-03-30T23:44:45.320Z,99.90
2019-03-30T23:47:13.778Z,99.90
2019-03-30T23:49:42.266Z,99.90
2019-03-30T23:52:10.720Z,99.90
2019-03-30T23:54:39.202Z,99.90
2019-03-30T23:57:07.731Z,99.90
2019-03-30T23:59:36.246Z,99.90
